sensor_id;sensor_type;location;lat;lon;timestamp;pressure;altitude;pressure_sealevel;temperature;humidity
50710;BME280;37033;49.994;21.992;2023-05-10T00:00:05;99818.23;;;4.12;58.06
50710;BME280;37033;49.994;21.992;2023-05-10T00:02:55;99818.37;;;4.05;58.34
50710;BME280;37033;49.994;21.992;2023-05-10T00:05:26;99816.78;;;4.00;58.36
50710;BME280;37033;49.994;21.992;2023-05-10T00:07:57;99813.58;;;3.96;58.68
50710;BME280;37033;49.994;21.992;2023-05-10T00:10:27;99812.98;;;3.92;58.65
50710;BME280;37033;49.994;21.992;2023-05-10T00:12:58;99815.29;;;3.86;58.91
50710;BME280;37033;49.994;21.992;2023-05-10T00:15:29;99814.52;;;3.82;59.24
50710;BME280;37033;49.994;21.992;2023-05-10T00:18:00;99809.32;;;3.76;59.13
50710;BME280;37033;49.994;21.992;2023-05-10T00:20:31;99811.05;;;3.72;59.55
50710;BME280;37033;49.994;21.992;2023-05-10T00:23:02;99807.52;;;3.69;59.67
50710;BME280;37033;49.994;21.992;2023-05-10T00:25:32;99811.41;;;3.63;59.82
50710;BME280;37033;49.994;21.992;2023-05-10T00:28:03;99809.70;;;3.55;59.97
50710;BME280;37033;49.994;21.992;2023-05-10T00:30:34;99807.52;;;3.51;60.39
50710;BME280;37033;49.994;21.992;2023-05-10T00:33:05;99800.48;;;3.47;60.56
50710;BME280;37033;49.994;21.992;2023-05-10T00:35:36;99801.58;;;3.45;60.60
50710;BME280;37033;49.994;21.992;2023-05-10T00:38:07;99794.81;;;3.41;60.81
50710;BME280;37033;49.994;21.992;2023-05-10T00:40:38;99793.45;;;3.39;61.12
50710;BME280;37033;49.994;21.992;2023-05-10T00:43:08;99795.34;;;3.38;61.07
50710;BME280;37033;49.994;21.992;2023-05-10T00:45:40;99795.27;;;3.35;61.12
50710;BME280;37033;49.994;21.992;2023-05-10T00:48:12;99801.38;;;3.33;61.08
50710;BME280;37033;49.994;21.992;2023-05-10T00:50:42;99803.41;;;3.30;61.08
50710;BME280;37033;49.994;21.992;2023-05-10T00:53:14;99803.64;;;3.25;61.36
50710;BME280;37033;49.994;21.992;2023-05-10T00:55:44;99797.29;;;3.21;61.72
50710;BME280;37033;49.994;21.992;2023-05-10T00:58:15;99798.16;;;3.19;61.87
50710;BME280;37033;49.994;21.992;2023-05-10T01:00:47;99796.39;;;3.15;62.02
50710;BME280;37033;49.994;21.992;2023-05-10T01:03:18;99797.55;;;3.11;62.25
50710;BME280;37033;49.994;21.992;2023-05-10T01:05:49;99796.84;;;3.07;62.43
50710;BME280;37033;49.994;21.992;2023-05-10T01:08:20;99794.73;;;3.02;61.98
50710;BME280;37033;49.994;21.992;2023-05-10T01:10:51;99789.61;;;2.97;62.28
50710;BME280;37033;49.994;21.992;2023-05-10T01:13:32;99786.27;;;2.92;62.69
50710;BME280;37033;49.994;21.992;2023-05-10T01:16:04;99784.98;;;2.89;62.72
50710;BME280;37033;49.994;21.992;2023-05-10T01:18:38;99788.81;;;2.86;62.86
50710;BME280;37033;49.994;21.992;2023-05-10T01:21:18;99792.31;;;2.80;62.88
50710;BME280;37033;49.994;21.992;2023-05-10T01:27:02;99791.86;;;2.70;62.99
50710;BME280;37033;49.994;21.992;2023-05-10T01:30:11;99789.75;;;2.68;63.20
50710;BME280;37033;49.994;21.992;2023-05-10T01:32:56;99781.93;;;2.65;63.33
50710;BME280;37033;49.994;21.992;2023-05-10T01:35:37;99779.71;;;2.63;63.54
50710;BME280;37033;49.994;21.992;2023-05-10T01:38:15;99776.23;;;2.58;63.54
50710;BME280;37033;49.994;21.992;2023-05-10T01:40:55;99779.04;;;2.53;64.00
50710;BME280;37033;49.994;21.992;2023-05-10T01:43:33;99780.87;;;2.49;64.05
50710;BME280;37033;49.994;21.992;2023-05-10T01:46:12;99785.22;;;2.43;63.95
50710;BME280;37033;49.994;21.992;2023-05-10T01:48:48;99786.39;;;2.39;63.98
50710;BME280;37033;49.994;21.992;2023-05-10T01:51:25;99783.48;;;2.36;64.37
50710;BME280;37033;49.994;21.992;2023-05-10T01:54:01;99781.09;;;2.35;64.63
50710;BME280;37033;49.994;21.992;2023-05-10T01:56:33;99780.02;;;2.35;64.59
50710;BME280;37033;49.994;21.992;2023-05-10T01:59:08;99778.52;;;2.34;64.89
50710;BME280;37033;49.994;21.992;2023-05-10T02:01:41;99777.78;;;2.33;64.89
50710;BME280;37033;49.994;21.992;2023-05-10T02:04:16;99774.04;;;2.31;64.93
50710;BME280;37033;49.994;21.992;2023-05-10T02:06:48;99776.36;;;2.30;65.28
50710;BME280;37033;49.994;21.992;2023-05-10T02:09:21;99775.23;;;2.29;65.33
50710;BME280;37033;49.994;21.992;2023-05-10T02:11:54;99771.98;;;2.28;65.49
50710;BME280;37033;49.994;21.992;2023-05-10T02:14:27;99769.55;;;2.25;65.55
50710;BME280;37033;49.994;21.992;2023-05-10T02:16:59;99767.97;;;2.22;65.65
50710;BME280;37033;49.994;21.992;2023-05-10T02:19:33;99767.61;;;2.21;65.80
50710;BME280;37033;49.994;21.992;2023-05-10T02:22:05;99773.06;;;2.21;65.92
50710;BME280;37033;49.994;21.992;2023-05-10T02:24:37;99772.13;;;2.20;66.04
50710;BME280;37033;49.994;21.992;2023-05-10T02:27:09;99774.55;;;2.19;66.38
50710;BME280;37033;49.994;21.992;2023-05-10T02:29:42;99767.38;;;2.19;66.29
50710;BME280;37033;49.994;21.992;2023-05-10T02:32:13;99764.17;;;2.21;66.85
50710;BME280;37033;49.994;21.992;2023-05-10T02:34:45;99761.17;;;2.21;66.68
50710;BME280;37033;49.994;21.992;2023-05-10T02:37:21;99759.69;;;2.21;66.75
50710;BME280;37033;49.994;21.992;2023-05-10T02:39:54;99750.74;;;2.20;66.80
50710;BME280;37033;49.994;21.992;2023-05-10T02:42:27;99759.43;;;2.18;66.74
50710;BME280;37033;49.994;21.992;2023-05-10T02:45:02;99759.65;;;2.16;67.01
50710;BME280;37033;49.994;21.992;2023-05-10T02:47:35;99761.71;;;2.14;67.10
50710;BME280;37033;49.994;21.992;2023-05-10T02:50:07;99764.80;;;2.12;67.00
50710;BME280;37033;49.994;21.992;2023-05-10T02:52:42;99769.33;;;2.09;67.02
50710;BME280;37033;49.994;21.992;2023-05-10T02:55:16;99770.70;;;2.04;67.07
50710;BME280;37033;49.994;21.992;2023-05-10T02:57:53;99771.31;;;2.01;67.18
50710;BME280;37033;49.994;21.992;2023-05-10T03:00:27;99772.36;;;1.99;67.19
50710;BME280;37033;49.994;21.992;2023-05-10T03:02:58;99777.30;;;1.97;67.40
50710;BME280;37033;49.994;21.992;2023-05-10T03:05:28;99776.10;;;1.95;67.52
50710;BME280;37033;49.994;21.992;2023-05-10T03:08:00;99770.16;;;1.94;67.59
50710;BME280;37033;49.994;21.992;2023-05-10T03:10:33;99768.48;;;1.93;67.74
50710;BME280;37033;49.994;21.992;2023-05-10T03:13:16;99772.48;;;1.91;67.74
50710;BME280;37033;49.994;21.992;2023-05-10T03:15:57;99772.50;;;1.89;67.98
50710;BME280;37033;49.994;21.992;2023-05-10T03:18:37;99771.45;;;1.87;67.74
50710;BME280;37033;49.994;21.992;2023-05-10T03:21:13;99770.19;;;1.86;68.03
50710;BME280;37033;49.994;21.992;2023-05-10T03:23:50;99769.20;;;1.85;67.96
50710;BME280;37033;49.994;21.992;2023-05-10T03:26:26;99768.19;;;1.86;67.84
50710;BME280;37033;49.994;21.992;2023-05-10T03:28:58;99771.90;;;1.86;68.13
50710;BME280;37033;49.994;21.992;2023-05-10T03:31:30;99773.40;;;1.87;68.17
50710;BME280;37033;49.994;21.992;2023-05-10T03:34:00;99770.66;;;1.88;68.30
50710;BME280;37033;49.994;21.992;2023-05-10T03:36:31;99773.42;;;1.88;68.40
50710;BME280;37033;49.994;21.992;2023-05-10T03:39:02;99768.92;;;1.90;68.71
50710;BME280;37033;49.994;21.992;2023-05-10T03:41:35;99770.59;;;1.93;68.71
50710;BME280;37033;49.994;21.992;2023-05-10T03:44:06;99770.33;;;1.97;68.85
50710;BME280;37033;49.994;21.992;2023-05-10T03:46:37;99771.20;;;2.02;69.05
50710;BME280;37033;49.994;21.992;2023-05-10T03:49:08;99769.89;;;2.05;69.25
50710;BME280;37033;49.994;21.992;2023-05-10T03:51:38;99766.17;;;2.13;69.39
50710;BME280;37033;49.994;21.992;2023-05-10T03:54:09;99760.39;;;2.21;69.55
50710;BME280;37033;49.994;21.992;2023-05-10T03:56:40;99757.52;;;2.29;69.84
50710;BME280;37033;49.994;21.992;2023-05-10T03:59:10;99754.08;;;2.37;69.72
50710;BME280;37033;49.994;21.992;2023-05-10T04:01:41;99751.89;;;2.46;69.84
50710;BME280;37033;49.994;21.992;2023-05-10T04:04:12;99754.84;;;2.56;70.06
50710;BME280;37033;49.994;21.992;2023-05-10T04:06:43;99748.73;;;2.67;70.55
50710;BME280;37033;49.994;21.992;2023-05-10T04:09:13;99751.78;;;2.79;70.53
50710;BME280;37033;49.994;21.992;2023-05-10T04:11:45;99751.53;;;2.90;70.84
50710;BME280;37033;49.994;21.992;2023-05-10T04:14:16;99753.28;;;3.04;70.74
50710;BME280;37033;49.994;21.992;2023-05-10T04:16:46;99753.08;;;3.20;70.70
50710;BME280;37033;49.994;21.992;2023-05-10T04:19:17;99751.66;;;3.34;70.66
50710;BME280;37033;49.994;21.992;2023-05-10T04:21:48;99755.32;;;3.52;70.88
50710;BME280;37033;49.994;21.992;2023-05-10T04:24:19;99751.20;;;3.69;70.78
50710;BME280;37033;49.994;21.992;2023-05-10T04:26:50;99749.13;;;3.87;70.78
50710;BME280;37033;49.994;21.992;2023-05-10T04:29:20;99752.23;;;4.06;70.76
50710;BME280;37033;49.994;21.992;2023-05-10T04:31:51;99747.52;;;4.25;70.78
50710;BME280;37033;49.994;21.992;2023-05-10T04:34:22;99751.98;;;4.46;70.74
50710;BME280;37033;49.994;21.992;2023-05-10T04:36:53;99752.48;;;4.66;70.84
50710;BME280;37033;49.994;21.992;2023-05-10T04:39:24;99750.17;;;4.87;70.30
50710;BME280;37033;49.994;21.992;2023-05-10T04:41:55;99752.43;;;5.06;69.67
50710;BME280;37033;49.994;21.992;2023-05-10T04:44:28;99753.31;;;5.26;69.65
50710;BME280;37033;49.994;21.992;2023-05-10T04:47:00;99755.00;;;5.46;69.27
50710;BME280;37033;49.994;21.992;2023-05-10T04:49:31;99757.52;;;5.67;68.99
50710;BME280;37033;49.994;21.992;2023-05-10T04:52:02;99753.50;;;5.87;68.56
50710;BME280;37033;49.994;21.992;2023-05-10T04:54:33;99754.17;;;6.08;68.44
50710;BME280;37033;49.994;21.992;2023-05-10T04:57:04;99755.23;;;6.28;68.15
50710;BME280;37033;49.994;21.992;2023-05-10T04:59:36;99751.50;;;6.47;67.85
50710;BME280;37033;49.994;21.992;2023-05-10T05:02:07;99747.26;;;6.65;67.57
50710;BME280;37033;49.994;21.992;2023-05-10T05:04:38;99747.30;;;6.83;67.43
50710;BME280;37033;49.994;21.992;2023-05-10T05:07:09;99743.41;;;7.03;67.10
50710;BME280;37033;49.994;21.992;2023-05-10T05:09:40;99741.94;;;7.23;66.53
50710;BME280;37033;49.994;21.992;2023-05-10T05:12:11;99743.06;;;7.41;66.00
50710;BME280;37033;49.994;21.992;2023-05-10T05:14:43;99743.02;;;7.58;65.80
50710;BME280;37033;49.994;21.992;2023-05-10T05:17:14;99742.66;;;7.76;65.36
50710;BME280;37033;49.994;21.992;2023-05-10T05:19:44;99740.24;;;7.95;65.08
50710;BME280;37033;49.994;21.992;2023-05-10T05:22:15;99741.05;;;8.11;64.51
50710;BME280;37033;49.994;21.992;2023-05-10T05:24:46;99736.63;;;8.23;64.03
50710;BME280;37033;49.994;21.992;2023-05-10T05:27:17;99735.78;;;8.43;64.38
50710;BME280;37033;49.994;21.992;2023-05-10T05:29:48;99731.41;;;8.62;63.98
50710;BME280;37033;49.994;21.992;2023-05-10T05:32:18;99737.52;;;8.81;63.53
50710;BME280;37033;49.994;21.992;2023-05-10T05:34:51;99732.85;;;8.99;62.86
50710;BME280;37033;49.994;21.992;2023-05-10T05:37:22;99735.14;;;9.17;62.53
50710;BME280;37033;49.994;21.992;2023-05-10T05:39:53;99733.92;;;9.34;62.42
50710;BME280;37033;49.994;21.992;2023-05-10T05:42:24;99732.07;;;9.50;61.79
50710;BME280;37033;49.994;21.992;2023-05-10T05:44:55;99734.27;;;9.66;61.29
50710;BME280;37033;49.994;21.992;2023-05-10T05:47:26;99732.95;;;9.82;61.26
50710;BME280;37033;49.994;21.992;2023-05-10T05:49:57;99731.70;;;10.02;60.94
50710;BME280;37033;49.994;21.992;2023-05-10T05:52:27;99730.85;;;10.21;60.52
50710;BME280;37033;49.994;21.992;2023-05-10T05:54:58;99728.98;;;10.39;60.33
50710;BME280;37033;49.994;21.992;2023-05-10T05:57:29;99727.95;;;10.57;59.71
50710;BME280;37033;49.994;21.992;2023-05-10T06:00:02;99724.77;;;10.75;59.13
50710;BME280;37033;49.994;21.992;2023-05-10T06:02:34;99720.95;;;10.93;59.12
50710;BME280;37033;49.994;21.992;2023-05-10T06:05:06;99716.52;;;11.12;58.86
50710;BME280;37033;49.994;21.992;2023-05-10T06:07:37;99720.16;;;11.30;57.81
50710;BME280;37033;49.994;21.992;2023-05-10T06:10:09;99717.62;;;11.45;56.21
50710;BME280;37033;49.994;21.992;2023-05-10T06:12:40;99722.20;;;11.60;56.49
50710;BME280;37033;49.994;21.992;2023-05-10T06:15:12;99723.02;;;11.77;55.75
50710;BME280;37033;49.994;21.992;2023-05-10T06:17:42;99720.86;;;11.90;55.21
50710;BME280;37033;49.994;21.992;2023-05-10T06:20:14;99721.13;;;12.06;55.06
50710;BME280;37033;49.994;21.992;2023-05-10T06:22:45;99720.51;;;12.17;53.88
50710;BME280;37033;49.994;21.992;2023-05-10T06:25:19;99715.20;;;12.27;53.50
50710;BME280;37033;49.994;21.992;2023-05-10T06:27:50;99714.34;;;12.40;53.27
50710;BME280;37033;49.994;21.992;2023-05-10T06:30:27;99714.15;;;12.54;50.68
50710;BME280;37033;49.994;21.992;2023-05-10T06:32:57;99712.71;;;12.60;49.50
50710;BME280;37033;49.994;21.992;2023-05-10T06:35:29;99714.02;;;12.65;48.84
50710;BME280;37033;49.994;21.992;2023-05-10T06:38:03;99716.44;;;12.73;48.73
50710;BME280;37033;49.994;21.992;2023-05-10T06:40:34;99717.13;;;12.82;48.41
50710;BME280;37033;49.994;21.992;2023-05-10T06:43:07;99716.64;;;12.93;48.26
50710;BME280;37033;49.994;21.992;2023-05-10T06:45:38;99715.62;;;13.05;47.02
50710;BME280;37033;49.994;21.992;2023-05-10T06:48:10;99715.33;;;13.12;45.91
50710;BME280;37033;49.994;21.992;2023-05-10T06:50:43;99711.74;;;13.15;45.16
50710;BME280;37033;49.994;21.992;2023-05-10T06:53:14;99714.17;;;13.25;45.38
50710;BME280;37033;49.994;21.992;2023-05-10T06:55:45;99712.98;;;13.35;45.41
50710;BME280;37033;49.994;21.992;2023-05-10T06:58:15;99714.64;;;13.45;44.91
50710;BME280;37033;49.994;21.992;2023-05-10T07:00:46;99710.64;;;13.52;44.45
50710;BME280;37033;49.994;21.992;2023-05-10T07:03:17;99707.89;;;13.60;44.37
50710;BME280;37033;49.994;21.992;2023-05-10T07:05:48;99713.73;;;13.67;43.94
50710;BME280;37033;49.994;21.992;2023-05-10T07:08:21;99714.38;;;13.71;43.31
50710;BME280;37033;49.994;21.992;2023-05-10T07:10:52;99713.52;;;13.77;43.87
50710;BME280;37033;49.994;21.992;2023-05-10T07:13:22;99714.71;;;13.90;44.11
50710;BME280;37033;49.994;21.992;2023-05-10T07:15:53;99717.80;;;14.06;44.56
50710;BME280;37033;49.994;21.992;2023-05-10T07:18:24;99715.33;;;14.21;43.09
50710;BME280;37033;49.994;21.992;2023-05-10T07:20:55;99716.08;;;14.31;43.22
50710;BME280;37033;49.994;21.992;2023-05-10T07:23:27;99720.01;;;14.45;42.51
50710;BME280;37033;49.994;21.992;2023-05-10T07:25:57;99715.81;;;14.48;41.61
50710;BME280;37033;49.994;21.992;2023-05-10T07:28:28;99714.98;;;14.46;39.95
50710;BME280;37033;49.994;21.992;2023-05-10T07:30:59;99714.52;;;14.42;40.48
50710;BME280;37033;49.994;21.992;2023-05-10T07:33:30;99716.55;;;14.45;38.87
50710;BME280;37033;49.994;21.992;2023-05-10T07:36:01;99721.77;;;14.41;38.47
50710;BME280;37033;49.994;21.992;2023-05-10T07:38:32;99719.81;;;14.42;39.96
50710;BME280;37033;49.994;21.992;2023-05-10T07:41:02;99723.59;;;14.54;39.66
50710;BME280;37033;49.994;21.992;2023-05-10T07:43:36;99720.60;;;14.59;37.98
50710;BME280;37033;49.994;21.992;2023-05-10T07:46:07;99717.98;;;14.58;37.92
50710;BME280;37033;49.994;21.992;2023-05-10T07:48:39;99710.95;;;14.62;38.88
50710;BME280;37033;49.994;21.992;2023-05-10T07:51:10;99708.83;;;14.70;39.29
50710;BME280;37033;49.994;21.992;2023-05-10T07:53:44;99717.18;;;14.80;38.83
50710;BME280;37033;49.994;21.992;2023-05-10T07:56:24;99712.40;;;14.86;37.80
50710;BME280;37033;49.994;21.992;2023-05-10T07:58:56;99714.17;;;14.91;38.57
50710;BME280;37033;49.994;21.992;2023-05-10T08:01:29;99710.83;;;15.02;38.71
50710;BME280;37033;49.994;21.992;2023-05-10T08:04:01;99714.54;;;15.09;37.73
50710;BME280;37033;49.994;21.992;2023-05-10T08:06:32;99714.43;;;15.10;37.91
50710;BME280;37033;49.994;21.992;2023-05-10T08:09:02;99716.06;;;15.16;38.01
50710;BME280;37033;49.994;21.992;2023-05-10T08:11:33;99716.60;;;15.24;37.92
50710;BME280;37033;49.994;21.992;2023-05-10T08:14:04;99711.23;;;15.32;38.09
50710;BME280;37033;49.994;21.992;2023-05-10T08:16:38;99711.36;;;15.45;37.61
50710;BME280;37033;49.994;21.992;2023-05-10T08:19:09;99710.10;;;15.56;38.28
50710;BME280;37033;49.994;21.992;2023-05-10T08:21:39;99712.61;;;15.66;38.10
50710;BME280;37033;49.994;21.992;2023-05-10T08:24:14;99712.24;;;15.74;37.55
50710;BME280;37033;49.994;21.992;2023-05-10T08:26:44;99713.14;;;15.76;37.70
50710;BME280;37033;49.994;21.992;2023-05-10T08:29:15;99714.70;;;15.86;38.15
50710;BME280;37033;49.994;21.992;2023-05-10T08:31:46;99714.10;;;15.99;37.69
50710;BME280;37033;49.994;21.992;2023-05-10T08:34:17;99714.16;;;16.04;37.29
50710;BME280;37033;49.994;21.992;2023-05-10T08:36:50;99718.52;;;16.11;37.52
50710;BME280;37033;49.994;21.992;2023-05-10T08:39:21;99712.87;;;16.16;37.29
50710;BME280;37033;49.994;21.992;2023-05-10T08:41:57;99712.34;;;16.20;37.36
50710;BME280;37033;49.994;21.992;2023-05-10T08:44:33;99717.08;;;16.28;36.91
50710;BME280;37033;49.994;21.992;2023-05-10T08:47:06;99712.08;;;16.28;36.94
50710;BME280;37033;49.994;21.992;2023-05-10T08:49:42;99713.02;;;16.38;37.31
50710;BME280;37033;49.994;21.992;2023-05-10T08:52:17;99717.72;;;16.48;36.92
50710;BME280;37033;49.994;21.992;2023-05-10T08:54:49;99717.44;;;16.55;37.16
50710;BME280;37033;49.994;21.992;2023-05-10T08:57:20;99725.13;;;16.65;35.95
50710;BME280;37033;49.994;21.992;2023-05-10T08:59:51;99722.45;;;16.61;35.00
50710;BME280;37033;49.994;21.992;2023-05-10T09:02:25;99725.58;;;16.58;35.17
50710;BME280;37033;49.994;21.992;2023-05-10T09:04:56;99723.82;;;16.61;34.85
50710;BME280;37033;49.994;21.992;2023-05-10T09:07:27;99725.25;;;16.65;34.85
50710;BME280;37033;49.994;21.992;2023-05-10T09:09:58;99722.29;;;16.73;35.08
50710;BME280;37033;49.994;21.992;2023-05-10T09:12:29;99718.48;;;16.81;34.77
50710;BME280;37033;49.994;21.992;2023-05-10T09:15:00;99719.25;;;16.85;34.40
50710;BME280;37033;49.994;21.992;2023-05-10T09:17:32;99715.45;;;16.91;34.67
50710;BME280;37033;49.994;21.992;2023-05-10T09:20:05;99713.69;;;17.02;34.45
50710;BME280;37033;49.994;21.992;2023-05-10T09:22:36;99710.39;;;17.07;34.35
50710;BME280;37033;49.994;21.992;2023-05-10T09:25:10;99715.88;;;17.10;34.43
50710;BME280;37033;49.994;21.992;2023-05-10T09:27:43;99713.77;;;17.14;33.89
50710;BME280;37033;49.994;21.992;2023-05-10T09:30:23;99711.08;;;17.19;34.25
50710;BME280;37033;49.994;21.992;2023-05-10T09:32:54;99712.93;;;17.27;34.17
50710;BME280;37033;49.994;21.992;2023-05-10T09:35:27;99706.59;;;17.40;34.17
50710;BME280;37033;49.994;21.992;2023-05-10T09:38:02;99701.29;;;17.48;34.24
50710;BME280;37033;49.994;21.992;2023-05-10T09:40:36;99700.66;;;17.58;34.34
50710;BME280;37033;49.994;21.992;2023-05-10T09:43:07;99697.69;;;17.71;33.93
50710;BME280;37033;49.994;21.992;2023-05-10T09:45:42;99695.73;;;17.79;34.15
50710;BME280;37033;49.994;21.992;2023-05-10T09:48:13;99694.60;;;17.90;34.80
50710;BME280;37033;49.994;21.992;2023-05-10T09:50:46;99696.56;;;18.05;34.30
50710;BME280;37033;49.994;21.992;2023-05-10T09:53:31;99694.97;;;18.06;33.62
50710;BME280;37033;49.994;21.992;2023-05-10T09:56:05;99695.14;;;18.13;33.62
50710;BME280;37033;49.994;21.992;2023-05-10T09:58:37;99694.13;;;18.15;33.15
50710;BME280;37033;49.994;21.992;2023-05-10T10:01:13;99690.62;;;18.16;33.64
50710;BME280;37033;49.994;21.992;2023-05-10T10:03:44;99684.81;;;18.37;34.08
50710;BME280;37033;49.994;21.992;2023-05-10T10:06:20;99685.96;;;18.59;33.90
50710;BME280;37033;49.994;21.992;2023-05-10T10:08:51;99685.53;;;18.72;33.72
50710;BME280;37033;49.994;21.992;2023-05-10T10:11:21;99681.70;;;18.80;34.13
50710;BME280;37033;49.994;21.992;2023-05-10T10:13:53;99681.40;;;18.88;33.87
50710;BME280;37033;49.994;21.992;2023-05-10T10:16:26;99682.41;;;18.98;33.66
50710;BME280;37033;49.994;21.992;2023-05-10T10:18:58;99674.40;;;19.07;33.44
50710;BME280;37033;49.994;21.992;2023-05-10T10:21:29;99677.74;;;19.19;32.89
50710;BME280;37033;49.994;21.992;2023-05-10T10:24:00;99669.23;;;19.32;33.40
50710;BME280;37033;49.994;21.992;2023-05-10T10:26:36;99660.73;;;19.52;32.99
50710;BME280;37033;49.994;21.992;2023-05-10T10:29:13;99665.48;;;19.64;32.18
50710;BME280;37033;49.994;21.992;2023-05-10T10:31:51;99660.64;;;19.50;31.42
50710;BME280;37033;49.994;21.992;2023-05-10T10:34:31;99657.96;;;19.48;30.74
50710;BME280;37033;49.994;21.992;2023-05-10T10:37:06;99650.61;;;19.36;29.87
50710;BME280;37033;49.994;21.992;2023-05-10T10:39:37;99653.93;;;19.15;30.42
50710;BME280;37033;49.994;21.992;2023-05-10T10:42:07;99649.77;;;19.11;30.41
50710;BME280;37033;49.994;21.992;2023-05-10T10:44:39;99646.73;;;19.02;31.48
50710;BME280;37033;49.994;21.992;2023-05-10T10:47:23;99641.34;;;19.11;30.91
50710;BME280;37033;49.994;21.992;2023-05-10T10:50:06;99635.44;;;19.12;30.85
50710;BME280;37033;49.994;21.992;2023-05-10T10:52:39;99629.43;;;19.22;31.31
50710;BME280;37033;49.994;21.992;2023-05-10T10:55:11;99627.00;;;19.35;30.56
50710;BME280;37033;49.994;21.992;2023-05-10T10:57:50;99626.41;;;19.53;30.47
50710;BME280;37033;49.994;21.992;2023-05-10T11:00:29;99627.44;;;19.59;30.13
50710;BME280;37033;49.994;21.992;2023-05-10T11:03:04;99623.94;;;19.48;29.28
50710;BME280;37033;49.994;21.992;2023-05-10T11:05:41;99620.42;;;19.42;30.16
50710;BME280;37033;49.994;21.992;2023-05-10T11:08:15;99616.42;;;19.45;30.06
50710;BME280;37033;49.994;21.992;2023-05-10T11:13:42;99606.54;;;19.50;30.31
50710;BME280;37033;49.994;21.992;2023-05-10T11:16:15;99603.45;;;19.67;31.58
50710;BME280;37033;49.994;21.992;2023-05-10T11:19:00;99598.24;;;19.94;31.40
50710;BME280;37033;49.994;21.992;2023-05-10T11:21:44;99601.09;;;20.10;29.69
50710;BME280;37033;49.994;21.992;2023-05-10T11:24:16;99602.17;;;20.02;27.95
50710;BME280;37033;49.994;21.992;2023-05-10T11:26:50;99600.64;;;19.81;28.14
50710;BME280;37033;49.994;21.992;2023-05-10T11:29:21;99595.48;;;19.76;29.03
50710;BME280;37033;49.994;21.992;2023-05-10T11:31:58;99598.65;;;19.85;29.10
50710;BME280;37033;49.994;21.992;2023-05-10T11:34:30;99601.93;;;19.87;29.51
50710;BME280;37033;49.994;21.992;2023-05-10T11:37:02;99600.08;;;19.97;29.75
50710;BME280;37033;49.994;21.992;2023-05-10T11:39:33;99595.19;;;20.10;29.12
50710;BME280;37033;49.994;21.992;2023-05-10T11:42:04;99594.27;;;20.12;27.60
50710;BME280;37033;49.994;21.992;2023-05-10T11:44:37;99589.66;;;19.96;27.91
50710;BME280;37033;49.994;21.992;2023-05-10T11:47:13;99581.84;;;20.12;28.10
50710;BME280;37033;49.994;21.992;2023-05-10T11:49:48;99578.14;;;20.20;25.82
50710;BME280;37033;49.994;21.992;2023-05-10T11:52:22;99573.46;;;20.05;27.24
50710;BME280;37033;49.994;21.992;2023-05-10T11:54:57;99579.77;;;20.05;27.68
50710;BME280;37033;49.994;21.992;2023-05-10T11:57:31;99579.98;;;19.94;28.40
50710;BME280;37033;49.994;21.992;2023-05-10T12:00:08;99580.67;;;19.88;28.01
50710;BME280;37033;49.994;21.992;2023-05-10T12:02:44;99582.14;;;19.82;28.41
50710;BME280;37033;49.994;21.992;2023-05-10T12:05:15;99576.56;;;19.79;28.09
50710;BME280;37033;49.994;21.992;2023-05-10T12:07:49;99576.48;;;19.99;28.26
50710;BME280;37033;49.994;21.992;2023-05-10T12:10:26;99574.66;;;20.17;28.50
50710;BME280;37033;49.994;21.992;2023-05-10T12:12:57;99571.74;;;20.20;27.96
50710;BME280;37033;49.994;21.992;2023-05-10T12:15:28;99564.89;;;20.14;28.13
50710;BME280;37033;49.994;21.992;2023-05-10T12:18:02;99557.83;;;20.23;27.52
50710;BME280;37033;49.994;21.992;2023-05-10T12:20:34;99567.98;;;20.15;27.37
50710;BME280;37033;49.994;21.992;2023-05-10T12:23:07;99575.85;;;19.93;27.39
50710;BME280;37033;49.994;21.992;2023-05-10T12:25:38;99568.42;;;19.77;27.43
50710;BME280;37033;49.994;21.992;2023-05-10T12:28:10;99563.57;;;19.82;28.18
50710;BME280;37033;49.994;21.992;2023-05-10T12:30:41;99558.24;;;19.90;28.21
50710;BME280;37033;49.994;21.992;2023-05-10T12:33:13;99555.30;;;19.88;27.88
50710;BME280;37033;49.994;21.992;2023-05-10T12:35:49;99556.73;;;19.91;28.13
50710;BME280;37033;49.994;21.992;2023-05-10T12:38:31;99556.33;;;19.82;27.36
50710;BME280;37033;49.994;21.992;2023-05-10T12:41:04;99553.09;;;19.77;27.37
50710;BME280;37033;49.994;21.992;2023-05-10T12:43:37;99552.77;;;19.77;27.92
50710;BME280;37033;49.994;21.992;2023-05-10T12:46:09;99548.34;;;19.88;28.28
50710;BME280;37033;49.994;21.992;2023-05-10T12:48:43;99546.91;;;20.02;28.16
50710;BME280;37033;49.994;21.992;2023-05-10T12:51:17;99548.75;;;20.01;28.29
50710;BME280;37033;49.994;21.992;2023-05-10T12:53:51;99543.45;;;19.95;28.14
50710;BME280;37033;49.994;21.992;2023-05-10T12:56:22;99541.50;;;19.99;28.14
50710;BME280;37033;49.994;21.992;2023-05-10T12:58:53;99539.20;;;20.05;27.61
50710;BME280;37033;49.994;21.992;2023-05-10T13:01:28;99524.08;;;20.05;27.64
50710;BME280;37033;49.994;21.992;2023-05-10T13:03:59;99524.20;;;20.14;27.54
50710;BME280;37033;49.994;21.992;2023-05-10T13:06:32;99524.27;;;20.27;28.31
50710;BME280;37033;49.994;21.992;2023-05-10T13:09:04;99523.15;;;20.40;27.79
50710;BME280;37033;49.994;21.992;2023-05-10T13:11:35;99519.21;;;20.44;28.03
50710;BME280;37033;49.994;21.992;2023-05-10T13:14:08;99515.13;;;20.47;27.71
50710;BME280;37033;49.994;21.992;2023-05-10T13:16:45;99516.86;;;20.43;28.05
50710;BME280;37033;49.994;21.992;2023-05-10T13:19:16;99515.63;;;20.34;28.39
50710;BME280;37033;49.994;21.992;2023-05-10T13:21:47;99513.61;;;20.39;28.84
50710;BME280;37033;49.994;21.992;2023-05-10T13:24:20;99515.00;;;20.42;28.96
50710;BME280;37033;49.994;21.992;2023-05-10T13:26:51;99506.48;;;20.46;28.63
50710;BME280;37033;49.994;21.992;2023-05-10T13:29:25;99502.71;;;20.46;28.35